Time;durP1;ratioP1;P1;durP2;ratioP2;P2;SDS_P1;SDS_P2;PMS_P1;PMS_P2;Temp;Humidity;BMP_temperature;BMP_pressure;BME280_temperature;BME280_humidity;BME280_pressure;Samples;Min_cycle;Max_cycle;Signal;HPM_P1;HPM_P2
2022/03/09 00:00:49;;;;;;;13.52;8.38;;;3.50;99.90;;;;;;5092955;28;20126;-45
2022/03/09 00:03:15;;;;;;;16.38;7.80;;;3.50;99.90;;;;;;5092496;28;20040;-44
2022/03/09 00:05:42;;;;;;;13.40;7.82;;;3.50;99.90;;;;;;5090932;28;20040;-43
2022/03/09 00:08:07;;;;;;;13.63;8.15;;;3.40;99.90;;;;;;5091956;28;20498;-44
2022/03/09 00:10:33;;;;;;;14.52;7.65;;;3.60;99.90;;;;;;5091071;28;20036;-44
2022/03/09 00:12:59;;;;;;;14.70;7.65;;;3.40;99.90;;;;;;5091991;28;20455;-44
2022/03/09 00:15:25;;;;;;;14.27;8.05;;;3.30;99.90;;;;;;5092215;28;20040;-42
2022/03/09 00:17:50;;;;;;;15.20;7.80;;;3.30;99.90;;;;;;5091684;28;20403;-46
2022/03/09 00:20:16;;;;;;;12.63;7.82;;;3.20;99.90;;;;;;5091985;28;20078;-43
2022/03/09 00:22:42;;;;;;;15.48;8.13;;;3.30;99.90;;;;;;5091702;28;20177;-44
2022/03/09 00:25:08;;;;;;;14.95;8.30;;;3.20;99.90;;;;;;5092073;28;20518;-42
2022/03/09 00:27:34;;;;;;;12.35;8.13;;;3.20;99.90;;;;;;5092123;28;20101;-45
2022/03/09 00:30:00;;;;;;;13.50;7.95;;;3.20;99.90;;;;;;5090359;28;20076;-43
2022/03/09 00:32:25;;;;;;;14.93;8.07;;;3.20;99.90;;;;;;5091892;28;20044;-41
2022/03/09 00:34:51;;;;;;;15.15;7.90;;;3.10;99.90;;;;;;5090582;28;20114;-43
2022/03/09 00:37:17;;;;;;;12.73;7.35;;;3.10;99.90;;;;;;5090828;28;20035;-41
2022/03/09 00:39:42;;;;;;;16.50;8.55;;;3.00;99.90;;;;;;5091815;28;20039;-42
2022/03/09 00:42:08;;;;;;;15.80;9.10;;;3.00;99.90;;;;;;5091620;28;20043;-41
2022/03/09 00:44:33;;;;;;;15.95;8.43;;;3.00;99.90;;;;;;5091994;28;20280;-43
2022/03/09 00:46:59;;;;;;;15.10;8.70;;;3.00;99.90;;;;;;5092000;28;20036;-41
2022/03/09 00:49:25;;;;;;;13.98;8.23;;;2.90;99.90;;;;;;5072976;28;20130;-43
2022/03/09 00:51:50;;;;;;;14.75;8.35;;;2.90;99.90;;;;;;5090348;28;20089;-45
2022/03/09 00:54:16;;;;;;;16.45;8.25;;;2.90;99.90;;;;;;5090154;28;20038;-43
2022/03/09 00:56:42;;;;;;;17.15;8.93;;;2.90;99.90;;;;;;5091440;28;20040;-42
2022/03/09 00:59:07;;;;;;;15.73;8.35;;;2.90;99.90;;;;;;5091739;28;20480;-43
2022/03/09 01:01:33;;;;;;;13.57;8.05;;;2.90;99.90;;;;;;5089225;28;20396;-42
2022/03/09 01:03:59;;;;;;;19.42;8.68;;;2.90;99.90;;;;;;5089970;28;20758;-43
2022/03/09 01:06:24;;;;;;;13.43;7.88;;;2.90;99.90;;;;;;5091384;28;20040;-42
2022/03/09 01:08:50;;;;;;;15.55;8.77;;;2.90;99.90;;;;;;5091296;28;20059;-44
2022/03/09 01:11:16;;;;;;;15.95;8.45;;;3.00;99.90;;;;;;5091260;28;20123;-41
2022/03/09 01:13:41;;;;;;;13.38;7.68;;;3.00;99.90;;;;;;5091303;28;20040;-43
2022/03/09 01:16:07;;;;;;;14.25;8.15;;;3.00;99.90;;;;;;5091063;28;20050;-42
2022/03/09 01:18:33;;;;;;;13.38;8.35;;;3.00;99.90;;;;;;5091182;28;20083;-41
2022/03/09 01:20:59;;;;;;;16.45;8.85;;;3.00;99.90;;;;;;5090621;28;20372;-45
2022/03/09 01:23:25;;;;;;;14.48;8.75;;;3.00;99.90;;;;;;5089447;28;20115;-44
2022/03/09 01:25:52;;;;;;;18.20;9.20;;;3.00;99.90;;;;;;5091080;28;20107;-41
2022/03/09 01:28:18;;;;;;;14.68;9.07;;;3.00;99.90;;;;;;5090418;28;20079;-41
2022/03/09 01:30:43;;;;;;;15.55;8.05;;;3.00;99.90;;;;;;5090589;28;20395;-44
2022/03/09 01:33:09;;;;;;;15.63;8.43;;;3.00;99.90;;;;;;5091084;28;20032;-43
2022/03/09 01:35:35;;;;;;;13.63;8.38;;;3.00;99.90;;;;;;5090471;28;20032;-45
2022/03/09 01:38:00;;;;;;;14.10;8.85;;;3.00;99.90;;;;;;5090249;28;20032;-45
2022/03/09 01:40:26;;;;;;;15.85;8.00;;;3.10;99.90;;;;;;5090968;28;20036;-41
2022/03/09 01:42:53;;;;;;;14.48;8.35;;;3.00;99.90;;;;;;5090418;28;20053;-42
2022/03/09 01:45:20;;;;;;;15.15;7.85;;;3.00;99.90;;;;;;5089632;28;20532;-43
2022/03/09 01:47:46;;;;;;;13.00;7.78;;;3.00;99.90;;;;;;5090767;28;20119;-44
2022/03/09 01:50:12;;;;;;;14.93;9.00;;;3.00;99.90;;;;;;5090271;28;20050;-42
2022/03/09 01:52:40;;;;;;;14.98;8.15;;;3.10;99.90;;;;;;5090227;28;20425;-42
2022/03/09 01:55:06;;;;;;;14.32;7.85;;;3.00;99.90;;;;;;5090685;28;20115;-45
2022/03/09 01:57:32;;;;;;;13.13;7.55;;;3.00;99.90;;;;;;5090512;28;20032;-42
2022/03/09 01:59:58;;;;;;;14.25;8.52;;;3.00;99.90;;;;;;5090809;28;20458;-41
2022/03/09 02:02:24;;;;;;;18.35;8.10;;;3.00;99.90;;;;;;5090091;28;20032;-43
2022/03/09 02:04:50;;;;;;;15.27;7.97;;;3.00;99.90;;;;;;5090670;28;20085;-44
2022/03/09 02:07:16;;;;;;;13.20;7.93;;;2.90;99.90;;;;;;5090479;28;20524;-41
2022/03/09 02:09:43;;;;;;;14.90;8.18;;;2.90;99.90;;;;;;5088544;28;20071;-42
2022/03/09 02:12:19;;;;;;;13.35;7.82;;;2.90;99.90;;;;;;5090113;28;20119;-43
2022/03/09 02:14:49;;;;;;;13.52;7.93;;;2.80;99.90;;;;;;5090505;28;20126;-44
2022/03/09 02:17:18;;;;;;;16.52;8.38;;;2.80;99.90;;;;;;5090288;28;20097;-43
2022/03/09 02:19:47;;;;;;;16.75;8.45;;;2.60;99.90;;;;;;5089882;28;20043;-41
2022/03/09 02:22:32;;;;;;;16.45;8.57;;;2.60;99.90;;;;;;5088435;28;20070;-42
2022/03/09 02:24:58;;;;;;;14.32;8.20;;;2.50;99.90;;;;;;5089296;28;20055;-41
2022/03/09 02:27:25;;;;;;;13.88;8.10;;;2.50;99.90;;;;;;5089801;28;20086;-42
2022/03/09 02:29:51;;;;;;;14.70;7.93;;;2.50;99.90;;;;;;5090022;28;20472;-45
2022/03/09 02:32:17;;;;;;;16.50;7.80;;;2.70;99.90;;;;;;5090239;28;20047;-44
2022/03/09 02:34:43;;;;;;;16.88;9.00;;;2.40;99.90;;;;;;5090308;28;20032;-46
2022/03/09 02:37:09;;;;;;;13.25;7.80;;;2.40;99.90;;;;;;5089834;28;20032;-41
2022/03/09 02:39:35;;;;;;;16.33;8.85;;;2.40;99.90;;;;;;5087631;28;20024;-43
2022/03/09 02:42:01;;;;;;;14.10;8.00;;;2.30;99.90;;;;;;5090312;28;20360;-41
2022/03/09 02:44:27;;;;;;;16.15;8.93;;;2.40;99.90;;;;;;5090288;28;20038;-41
2022/03/09 02:46:53;;;;;;;15.23;8.77;;;2.30;99.90;;;;;;5088788;28;20032;-42
2022/03/09 02:49:19;;;;;;;16.60;8.90;;;2.30;99.90;;;;;;5090074;28;20097;-43
2022/03/09 02:51:45;;;;;;;16.92;8.73;;;2.30;99.90;;;;;;5090226;28;20044;-43
2022/03/09 02:54:10;;;;;;;16.52;8.63;;;2.20;99.90;;;;;;5089490;28;20036;-42
2022/03/09 02:56:36;;;;;;;14.50;8.07;;;2.20;99.90;;;;;;5089986;28;20047;-42
2022/03/09 02:59:02;;;;;;;16.15;9.10;;;2.10;99.90;;;;;;5088966;28;20036;-43
2022/03/09 03:01:28;;;;;;;13.77;8.32;;;2.10;99.90;;;;;;5088706;28;20032;-42
2022/03/09 03:03:53;;;;;;;15.82;8.23;;;2.10;99.90;;;;;;5089843;28;20376;-44
2022/03/09 03:06:19;;;;;;;15.80;9.05;;;2.00;99.90;;;;;;5089992;28;20107;-42
2022/03/09 03:08:45;;;;;;;15.48;8.43;;;2.00;99.90;;;;;;5089588;28;20039;-44
2022/03/09 03:11:10;;;;;;;13.93;8.52;;;2.00;99.90;;;;;;5089524;28;20032;-43
2022/03/09 03:13:38;;;;;;;14.18;7.43;;;2.00;99.90;;;;;;5090064;28;20040;-44
2022/03/09 03:16:05;;;;;;;14.55;8.40;;;2.00;99.90;;;;;;5089809;28;20487;-41
2022/03/09 03:18:31;;;;;;;15.95;8.32;;;1.90;99.90;;;;;;5090035;28;20028;-45
2022/03/09 03:20:57;;;;;;;14.75;8.20;;;1.90;99.90;;;;;;5089864;28;20036;-44
2022/03/09 03:23:23;;;;;;;16.08;9.00;;;1.80;99.90;;;;;;5089444;28;20040;-43
2022/03/09 03:25:53;;;;;;;14.93;8.15;;;1.70;99.90;;;;;;5089720;28;20032;-41
2022/03/09 03:28:20;;;;;;;13.27;8.27;;;1.70;99.90;;;;;;5089507;28;20126;-42
2022/03/09 03:30:46;;;;;;;16.35;8.88;;;1.70;99.90;;;;;;5089837;28;20112;-43
2022/03/09 03:33:13;;;;;;;17.42;9.35;;;1.60;99.90;;;;;;5089867;28;20061;-41
2022/03/09 03:35:40;;;;;;;15.55;9.52;;;1.50;99.90;;;;;;5089705;28;20040;-41
2022/03/09 03:38:06;;;;;;;18.77;9.75;;;1.50;99.90;;;;;;5089668;28;20124;-43
2022/03/09 03:40:32;;;;;;;18.52;9.20;;;1.50;99.90;;;;;;5089216;28;20047;-43
2022/03/09 03:42:58;;;;;;;17.55;9.07;;;1.40;99.90;;;;;;5091840;28;20036;-41
2022/03/09 03:45:24;;;;;;;19.23;9.35;;;1.40;99.90;;;;;;5093313;28;20039;-46
2022/03/09 03:47:49;;;;;;;16.17;9.52;;;1.30;99.90;;;;;;5093245;28;20097;-41
2022/03/09 03:50:15;;;;;;;15.13;8.98;;;1.30;99.90;;;;;;5091521;28;20032;-44
2022/03/09 03:52:41;;;;;;;13.85;8.23;;;1.30;99.90;;;;;;5091026;28;20036;-42
2022/03/09 03:55:07;;;;;;;16.33;9.43;;;1.20;99.90;;;;;;5090679;28;20047;-41
2022/03/09 03:57:33;;;;;;;14.13;8.30;;;1.20;99.90;;;;;;5092255;28;20072;-41
2022/03/09 03:59:58;;;;;;;16.50;8.95;;;1.20;99.90;;;;;;5092717;28;20102;-44
2022/03/09 04:02:24;;;;;;;17.08;8.57;;;1.20;99.90;;;;;;5092747;28;20036;-42
2022/03/09 04:04:52;;;;;;;17.58;9.10;;;1.20;99.90;;;;;;5092716;28;20024;-43
2022/03/09 04:07:19;;;;;;;15.07;8.32;;;1.20;99.90;;;;;;5092351;28;20127;-42
2022/03/09 04:09:45;;;;;;;14.18;8.68;;;1.20;99.90;;;;;;5092276;28;20047;-40
2022/03/09 04:12:11;;;;;;;18.85;9.27;;;1.20;99.90;;;;;;5092654;28;20530;-44
2022/03/09 04:14:37;;;;;;;17.83;9.00;;;1.10;99.90;;;;;;5092563;28;20127;-43
2022/03/09 04:17:03;;;;;;;14.35;8.57;;;1.10;99.90;;;;;;5092392;28;20046;-43
2022/03/09 04:19:28;;;;;;;15.45;8.75;;;1.10;99.90;;;;;;5091317;28;20036;-42
2022/03/09 04:21:54;;;;;;;20.60;9.00;;;1.10;99.90;;;;;;5092259;28;20040;-40
2022/03/09 04:24:20;;;;;;;15.48;9.13;;;1.00;99.90;;;;;;5091566;28;20421;-43
2022/03/09 04:26:46;;;;;;;18.13;9.18;;;1.00;99.90;;;;;;5090811;28;20388;-40
2022/03/09 04:29:11;;;;;;;18.55;8.90;;;1.00;99.90;;;;;;5091991;28;20093;-43
2022/03/09 04:31:37;;;;;;;16.48;8.82;;;1.00;99.90;;;;;;5092234;28;20528;-43
2022/03/09 04:34:03;;;;;;;17.27;9.00;;;0.90;99.90;;;;;;5091977;28;20036;-40
2022/03/09 04:36:29;;;;;;;15.13;8.40;;;1.00;99.90;;;;;;5092272;28;20039;-43
2022/03/09 04:38:54;;;;;;;17.38;9.15;;;0.90;99.90;;;;;;5092020;28;20044;-41
2022/03/09 04:41:21;;;;;;;14.02;8.40;;;0.90;99.90;;;;;;5092235;28;20032;-42
2022/03/09 04:43:47;;;;;;;15.05;8.90;;;0.90;99.90;;;;;;5091713;28;20032;-44
2022/03/09 04:46:13;;;;;;;16.48;9.00;;;0.90;99.90;;;;;;5092049;28;20130;-43
2022/03/09 04:48:38;;;;;;;19.00;9.07;;;0.90;99.90;;;;;;5091743;28;20123;-41
2022/03/09 04:51:04;;;;;;;17.40;9.73;;;0.90;99.90;;;;;;5091593;28;20036;-43
2022/03/09 04:53:31;;;;;;;15.00;8.68;;;0.90;99.90;;;;;;5091071;28;20035;-41
2022/03/09 04:55:57;;;;;;;17.38;9.20;;;0.90;99.90;;;;;;5091514;28;20036;-47
2022/03/09 04:58:23;;;;;;;15.70;9.30;;;0.90;99.90;;;;;;5091438;28;20046;-43
2022/03/09 05:00:49;;;;;;;15.57;8.85;;;0.90;99.90;;;;;;5090394;28;20399;-42
2022/03/09 05:03:15;;;;;;;14.93;8.43;;;0.90;99.90;;;;;;5091728;28;20040;-43
2022/03/09 05:05:41;;;;;;;16.38;8.57;;;1.00;99.90;;;;;;5091624;28;20523;-44
2022/03/09 05:08:06;;;;;;;16.08;8.90;;;1.00;99.90;;;;;;5091584;28;20059;-42
2022/03/09 05:10:32;;;;;;;13.70;7.90;;;1.00;99.90;;;;;;5091314;28;20043;-43
2022/03/09 05:12:58;;;;;;;17.45;9.38;;;1.00;99.90;;;;;;5091284;28;20032;-43
2022/03/09 05:15:23;;;;;;;16.23;8.88;;;1.00;99.90;;;;;;5091130;28;20123;-41
2022/03/09 05:17:49;;;;;;;16.77;8.80;;;1.00;99.90;;;;;;5090006;28;20044;-42
2022/03/09 05:20:19;;;;;;;18.80;8.85;;;1.00;99.90;;;;;;5090962;28;20039;-43
2022/03/09 05:22:45;;;;;;;17.02;8.00;;;1.00;99.90;;;;;;5091097;28;20062;-42
2022/03/09 05:25:11;;;;;;;16.77;8.32;;;1.00;99.90;;;;;;5090800;28;20032;-43
2022/03/09 05:27:37;;;;;;;15.45;9.00;;;1.00;99.90;;;;;;5090788;28;20064;-42
2022/03/09 05:30:03;;;;;;;18.52;8.80;;;1.00;99.90;;;;;;5090926;28;20057;-44
2022/03/09 05:32:29;;;;;;;16.80;8.45;;;1.00;99.90;;;;;;5091163;28;20032;-43
2022/03/09 05:34:55;;;;;;;18.92;8.45;;;0.90;99.90;;;;;;5090755;28;20545;-42
2022/03/09 05:37:22;;;;;;;15.20;8.98;;;0.90;99.90;;;;;;5091219;28;20043;-43
2022/03/09 05:39:48;;;;;;;14.60;8.25;;;0.80;99.90;;;;;;5091150;28;20028;-45
2022/03/09 05:42:14;;;;;;;16.13;8.57;;;0.80;99.90;;;;;;5090989;28;20076;-43
2022/03/09 05:44:40;;;;;;;16.05;8.38;;;0.80;99.90;;;;;;5091125;28;20360;-41
2022/03/09 05:47:06;;;;;;;14.32;8.80;;;0.70;99.90;;;;;;5091044;28;20047;-46
2022/03/09 05:49:32;;;;;;;15.18;8.38;;;0.70;99.90;;;;;;5090896;28;20067;-43
2022/03/09 05:51:57;;;;;;;18.70;8.70;;;0.70;99.90;;;;;;5090839;28;20043;-42
2022/03/09 05:54:23;;;;;;;17.23;9.15;;;0.60;99.90;;;;;;5087652;28;20506;-43
2022/03/09 05:56:49;;;;;;;16.23;8.75;;;0.60;99.90;;;;;;5090521;28;20048;-41
2022/03/09 05:59:15;;;;;;;15.13;8.70;;;0.50;99.90;;;;;;5090437;28;20070;-42
2022/03/09 06:01:41;;;;;;;17.13;9.10;;;0.50;99.90;;;;;;5089363;28;20052;-43
2022/03/09 06:04:07;;;;;;;17.15;8.93;;;0.50;99.90;;;;;;5089648;28;20032;-44
2022/03/09 06:06:32;;;;;;;15.10;8.85;;;0.40;99.90;;;;;;5090388;28;20044;-42
2022/03/09 06:08:58;;;;;;;16.70;8.80;;;0.50;99.90;;;;;;5090289;28;20032;-45
2022/03/09 06:11:24;;;;;;;16.92;8.70;;;0.40;99.90;;;;;;5090711;28;20047;-44
2022/03/09 06:13:50;;;;;;;14.27;8.00;;;0.50;99.90;;;;;;5089223;28;20104;-41
2022/03/09 06:16:16;;;;;;;15.57;8.45;;;0.50;99.90;;;;;;5090397;28;20118;-41
2022/03/09 06:18:42;;;;;;;17.00;8.40;;;0.50;99.90;;;;;;5088826;28;20471;-44
2022/03/09 06:21:07;;;;;;;15.25;8.85;;;0.50;99.90;;;;;;5090448;28;20088;-43
2022/03/09 06:23:33;;;;;;;13.43;8.45;;;0.60;99.90;;;;;;5089611;28;20040;-43
2022/03/09 06:25:59;;;;;;;15.77;8.43;;;0.50;99.90;;;;;;5090405;28;20107;-43
2022/03/09 06:28:25;;;;;;;16.20;9.02;;;0.50;99.90;;;;;;5088695;28;20181;-43
2022/03/09 06:30:51;;;;;;;17.67;8.88;;;0.50;99.90;;;;;;5090368;28;20111;-42
2022/03/09 06:33:17;;;;;;;14.10;8.45;;;0.50;99.90;;;;;;5090237;28;20063;-41
2022/03/09 06:35:43;;;;;;;15.45;8.40;;;0.50;99.90;;;;;;5089829;28;20480;-44
2022/03/09 06:38:09;;;;;;;18.70;8.90;;;0.40;99.90;;;;;;5089910;28;20513;-40
2022/03/09 06:40:35;;;;;;;20.73;9.65;;;0.50;99.90;;;;;;5090018;28;20142;-42
2022/03/09 06:43:01;;;;;;;18.45;8.45;;;0.50;99.90;;;;;;5089818;28;20127;-41
2022/03/09 06:45:28;;;;;;;17.60;9.00;;;0.50;99.90;;;;;;5089621;28;20035;-40
2022/03/09 06:47:54;;;;;;;15.40;7.88;;;0.50;99.90;;;;;;5090012;28;20491;-40
2022/03/09 06:50:20;;;;;;;17.23;8.45;;;0.50;99.90;;;;;;5088710;28;20387;-45
2022/03/09 06:52:45;;;;;;;16.02;8.88;;;0.60;99.90;;;;;;5089762;28;20039;-44
2022/03/09 06:55:12;;;;;;;15.98;9.25;;;0.60;99.90;;;;;;5089743;28;20044;-46
2022/03/09 06:57:39;;;;;;;16.30;8.48;;;0.60;99.90;;;;;;5090121;28;20042;-40
2022/03/09 07:00:07;;;;;;;15.38;9.18;;;0.70;99.90;;;;;;5088678;28;20182;-42
2022/03/09 07:02:33;;;;;;;14.90;8.57;;;0.70;99.90;;;;;;5089902;28;20067;-43
2022/03/09 07:05:00;;;;;;;17.67;8.82;;;0.80;99.90;;;;;;5089976;28;20032;-41
2022/03/09 07:07:25;;;;;;;16.45;8.52;;;0.80;99.90;;;;;;5089734;28;20036;-43
2022/03/09 07:09:51;;;;;;;16.45;8.13;;;0.80;99.90;;;;;;5087557;28;20368;-41
2022/03/09 07:12:17;;;;;;;15.10;7.90;;;0.90;99.90;;;;;;5089967;28;20040;-43
2022/03/09 07:14:42;;;;;;;13.90;8.32;;;1.00;99.90;;;;;;5089975;28;20455;-42
2022/03/09 07:17:08;;;;;;;16.30;8.85;;;1.00;99.90;;;;;;5092654;28;20102;-42
2022/03/09 07:19:34;;;;;;;17.05;8.40;;;1.10;99.90;;;;;;5093754;28;20090;-41
2022/03/09 07:21:59;;;;;;;16.30;8.00;;;1.20;99.90;;;;;;5092561;28;20024;-41
2022/03/09 07:24:25;;;;;;;15.52;8.52;;;1.30;99.90;;;;;;5092892;28;20068;-41
2022/03/09 07:26:51;;;;;;;16.30;8.93;;;1.30;99.90;;;;;;5093724;28;20136;-43
2022/03/09 07:29:17;;;;;;;15.20;8.43;;;1.40;99.90;;;;;;5093266;28;20426;-43
2022/03/09 07:31:43;;;;;;;16.42;8.27;;;1.50;99.90;;;;;;5093198;28;20044;-44
2022/03/09 07:34:09;;;;;;;17.15;8.60;;;1.70;99.90;;;;;;5093752;28;20039;-43
2022/03/09 07:36:35;;;;;;;16.80;8.93;;;1.80;99.90;;;;;;5076827;28;20032;-43
2022/03/09 07:39:00;;;;;;;17.38;8.55;;;1.90;99.90;;;;;;5091600;28;20224;-44
2022/03/09 07:41:26;;;;;;;14.70;8.05;;;2.00;99.90;;;;;;5082327;28;20036;-42
2022/03/09 07:43:52;;;;;;;14.73;8.65;;;2.10;99.90;;;;;;5084696;28;20036;-43
2022/03/09 07:46:18;;;;;;;14.40;7.93;;;2.20;99.90;;;;;;5083845;28;20040;-45
2022/03/09 07:48:43;;;;;;;18.05;8.40;;;2.30;99.90;;;;;;5084005;28;20028;-41
2022/03/09 07:51:09;;;;;;;16.50;8.52;;;2.40;99.90;;;;;;5084420;28;20063;-42
2022/03/09 07:53:35;;;;;;;12.57;7.70;;;2.50;99.90;;;;;;5083401;28;20044;-44
2022/03/09 07:56:00;;;;;;;17.02;8.65;;;2.60;99.90;;;;;;5084504;28;20107;-43
2022/03/09 07:58:26;;;;;;;15.73;9.00;;;2.70;99.90;;;;;;5083972;28;20060;-43
2022/03/09 08:00:52;;;;;;;16.70;8.30;;;2.80;99.90;;;;;;5084638;28;20032;-40
2022/03/09 08:03:17;;;;;;;13.07;7.70;;;3.00;99.90;;;;;;5084616;28;20101;-44
2022/03/09 08:05:44;;;;;;;13.90;7.47;;;3.00;99.90;;;;;;5084300;28;20066;-45
2022/03/09 08:08:10;;;;;;;13.13;7.13;;;3.10;99.90;;;;;;5081720;28;20044;-41
2022/03/09 08:10:36;;;;;;;14.85;7.85;;;3.20;99.90;;;;;;5084019;28;20035;-42
2022/03/09 08:13:02;;;;;;;12.88;7.43;;;3.30;99.90;;;;;;5079308;28;20079;-42
2022/03/09 08:15:27;;;;;;;15.98;7.90;;;3.40;99.90;;;;;;5081720;28;20036;-40
2022/03/09 08:17:53;;;;;;;12.73;7.88;;;3.50;99.90;;;;;;5081467;28;20032;-44
2022/03/09 08:20:19;;;;;;;15.73;8.23;;;3.60;99.90;;;;;;5082708;28;20040;-43
2022/03/09 08:22:44;;;;;;;15.65;8.55;;;3.60;99.90;;;;;;5082756;28;20056;-44
2022/03/09 08:25:10;;;;;;;18.60;7.82;;;3.80;99.90;;;;;;5079329;28;20391;-45
2022/03/09 08:27:35;;;;;;;12.55;7.72;;;3.80;99.90;;;;;;5082634;28;20044;-43
2022/03/09 08:30:03;;;;;;;15.68;7.82;;;4.00;99.90;;;;;;5077655;28;20044;-43
2022/03/09 08:32:28;;;;;;;16.33;7.47;;;4.00;99.90;;;;;;5073035;28;20039;-42
2022/03/09 08:34:54;;;;;;;12.70;7.07;;;4.00;99.90;;;;;;5081943;28;20104;-43
2022/03/09 08:37:20;;;;;;;15.13;7.65;;;4.10;99.90;;;;;;5079577;28;20051;-44
2022/03/09 08:39:48;;;;;;;13.30;8.00;;;4.20;99.90;;;;;;5082728;28;20043;-41
2022/03/09 08:42:15;;;;;;;16.90;7.68;;;4.20;99.90;;;;;;5075760;28;20051;-43
2022/03/09 08:44:41;;;;;;;16.40;7.93;;;4.30;99.90;;;;;;5076255;28;20379;-43
2022/03/09 08:47:07;;;;;;;15.65;7.60;;;4.40;99.90;;;;;;5081248;28;20025;-43
2022/03/09 08:49:33;;;;;;;15.57;8.57;;;4.50;99.90;;;;;;5078262;28;20032;-43
2022/03/09 08:51:59;;;;;;;12.85;7.60;;;4.50;99.90;;;;;;5078584;28;20046;-43
2022/03/09 08:54:25;;;;;;;16.95;8.32;;;4.60;99.90;;;;;;5077659;28;20047;-47
2022/03/09 08:56:51;;;;;;;12.95;8.13;;;4.70;99.90;;;;;;5079336;28;20040;-43
2022/03/09 08:59:16;;;;;;;18.23;8.60;;;4.80;99.90;;;;;;5077382;28;20039;-42
2022/03/09 09:01:42;;;;;;;13.23;8.38;;;4.90;99.90;;;;;;5078826;28;20377;-43
2022/03/09 09:04:08;;;;;;;13.25;7.65;;;5.00;99.90;;;;;;5078333;28;20524;-44
2022/03/09 09:06:34;;;;;;;14.00;7.25;;;5.10;99.90;;;;;;5079698;28;20036;-46
2022/03/09 09:09:00;;;;;;;16.00;8.13;;;5.20;99.90;;;;;;5079729;28;20471;-41
2022/03/09 09:11:25;;;;;;;16.13;7.70;;;5.40;99.90;;;;;;5079080;28;20036;-45
2022/03/09 09:13:51;;;;;;;12.07;7.55;;;5.50;99.90;;;;;;5078205;28;20040;-44
2022/03/09 09:16:17;;;;;;;14.30;7.53;;;5.60;99.90;;;;;;5076941;28;20041;-48
2022/03/09 09:18:43;;;;;;;16.08;7.80;;;5.80;99.90;;;;;;5077639;28;20059;-45
2022/03/09 09:21:10;;;;;;;14.98;8.02;;;5.80;99.90;;;;;;5080374;28;20505;-43
2022/03/09 09:23:38;;;;;;;13.27;8.20;;;6.00;99.90;;;;;;5078659;28;20036;-42
2022/03/09 09:26:04;;;;;;;20.42;8.00;;;6.10;99.90;;;;;;5078618;28;20040;-44
2022/03/09 09:28:30;;;;;;;14.95;7.93;;;6.20;99.90;;;;;;5078352;28;20064;-46
2022/03/09 09:30:56;;;;;;;12.93;7.70;;;6.40;99.10;;;;;;5079202;28;20130;-44
2022/03/09 09:33:22;;;;;;;13.50;7.07;;;6.40;97.70;;;;;;5077839;28;20127;-43
2022/03/09 09:35:48;;;;;;;13.98;6.72;;;6.50;98.00;;;;;;5078266;28;20024;-43
2022/03/09 09:38:15;;;;;;;16.52;7.65;;;6.60;98.30;;;;;;5079549;28;20521;-40
2022/03/09 09:40:43;;;;;;;13.93;7.45;;;6.70;96.60;;;;;;5078882;28;20437;-39
2022/03/09 09:43:13;;;;;;;13.95;7.10;;;6.80;97.60;;;;;;5078102;28;20032;-42
2022/03/09 09:45:40;;;;;;;12.05;7.38;;;6.90;97.00;;;;;;5075193;28;20533;-42
2022/03/09 09:48:07;;;;;;;13.43;7.50;;;7.00;97.10;;;;;;5075105;28;20781;-41
2022/03/09 09:50:34;;;;;;;11.35;6.95;;;7.00;96.10;;;;;;5072895;28;20044;-42
2022/03/09 09:53:04;;;;;;;11.25;7.03;;;7.00;96.10;;;;;;5072766;28;20079;-44
2022/03/09 09:55:30;;;;;;;14.27;7.43;;;7.10;95.10;;;;;;5081035;28;20043;-43
2022/03/09 09:57:57;;;;;;;12.20;7.18;;;7.20;97.40;;;;;;5081822;28;20471;-43
2022/03/09 10:00:23;;;;;;;14.95;8.25;;;7.50;96.40;;;;;;5079217;28;20036;-41
2022/03/09 10:02:49;;;;;;;13.85;7.78;;;7.40;96.40;;;;;;5083858;28;20123;-41
2022/03/09 10:05:16;;;;;;;14.48;7.68;;;7.60;97.60;;;;;;5086774;28;20038;-41
2022/03/09 10:08:04;;;;;;;13.50;7.38;;;7.60;96.40;;;;;;5081207;28;20471;-44
2022/03/09 10:10:30;;;;;;;15.40;7.68;;;7.70;96.90;;;;;;5082651;28;20045;-40
2022/03/09 10:13:14;;;;;;;13.27;7.47;;;7.80;95.70;;;;;;5082817;28;20357;-42
2022/03/09 10:15:41;;;;;;;14.48;8.00;;;7.80;95.10;;;;;;5080935;28;20073;-42
2022/03/09 10:18:14;;;;;;;13.18;7.07;;;7.80;95.80;;;;;;5087076;28;20732;-41
2022/03/09 10:20:40;;;;;;;14.57;7.83;;;8.00;95.90;;;;;;5081515;28;20131;-41
2022/03/09 10:23:08;;;;;;;16.08;7.90;;;8.10;95.40;;;;;;5079580;28;20294;-41
2022/03/09 10:25:34;;;;;;;16.25;7.95;;;8.20;96.00;;;;;;5086139;28;20436;-42
2022/03/09 10:28:06;;;;;;;15.95;7.68;;;8.10;93.80;;;;;;5086325;28;20051;-42
2022/03/09 10:30:34;;;;;;;15.07;7.15;;;8.30;94.40;;;;;;5086502;28;20376;-42
2022/03/09 10:33:13;;;;;;;13.55;7.07;;;8.30;91.60;;;;;;5082336;28;21477;-41
2022/03/09 10:35:47;;;;;;;13.43;7.82;;;8.40;93.00;;;;;;5082553;28;20822;-40
2022/03/09 10:38:16;;;;;;;13.13;7.70;;;8.50;92.30;;;;;;5078203;28;20048;-43
2022/03/09 10:40:44;;;;;;;11.88;7.80;;;8.60;92.90;;;;;;5082347;28;20036;-43
2022/03/09 10:43:12;;;;;;;12.73;7.85;;;8.80;92.10;;;;;;5083352;28;20054;-40
2022/03/09 10:46:01;;;;;;;11.32;7.32;;;8.90;90.20;;;;;;5081917;28;20047;-43
2022/03/09 10:48:50;;;;;;;14.20;7.82;;;9.00;87.80;;;;;;5085480;28;20036;-42
2022/03/09 10:51:34;;;;;;;15.70;7.63;;;9.20;86.10;;;;;;5083827;28;20040;-44
2022/03/09 10:54:08;;;;;;;12.10;7.65;;;9.50;84.70;;;;;;5085301;28;20379;-41
2022/03/09 10:56:35;;;;;;;12.80;7.78;;;9.70;83.40;;;;;;5080446;28;20262;-44
2022/03/09 10:59:27;;;;;;;12.65;7.80;;;9.70;79.00;;;;;;5091289;28;20044;-42
2022/03/09 11:02:21;;;;;;;13.38;7.43;;;9.80;80.00;;;;;;5086138;28;20055;-45
2022/03/09 11:05:14;;;;;;;11.63;6.97;;;10.00;76.90;;;;;;5081673;28;20052;-43
2022/03/09 11:07:41;;;;;;;14.48;8.07;;;10.00;75.00;;;;;;5085134;28;20047;-43
2022/03/09 11:10:09;;;;;;;13.23;7.75;;;10.20;75.40;;;;;;5083760;28;20040;-40
2022/03/09 11:12:36;;;;;;;11.93;7.63;;;10.20;77.30;;;;;;5086074;28;20032;-41
2022/03/09 11:15:02;;;;;;;14.25;7.88;;;10.30;73.20;;;;;;5086397;28;20390;-43
2022/03/09 11:17:28;;;;;;;12.93;7.90;;;10.40;74.20;;;;;;5088818;28;20047;-43
2022/03/09 11:19:54;;;;;;;14.10;7.82;;;10.50;74.00;;;;;;5084351;28;20048;-41
2022/03/09 11:22:20;;;;;;;14.68;7.80;;;10.70;73.30;;;;;;5082488;28;20031;-45
2022/03/09 11:24:46;;;;;;;15.00;8.20;;;10.80;71.80;;;;;;5085045;28;20133;-43
2022/03/09 11:27:13;;;;;;;12.77;8.48;;;10.80;70.10;;;;;;5085919;28;20039;-48
2022/03/09 11:29:40;;;;;;;15.77;8.40;;;10.90;73.80;;;;;;5070274;28;20060;-45
2022/03/09 11:32:08;;;;;;;14.32;8.77;;;11.00;69.70;;;;;;5084249;28;20032;-43
2022/03/09 11:34:43;;;;;;;14.85;8.85;;;11.10;68.10;;;;;;5085870;28;20050;-42
2022/03/09 11:37:08;;;;;;;;;;;11.10;67.40;;;;;;5083952;28;20492;-42
2022/03/09 11:39:35;;;;;;;13.68;8.30;;;11.30;66.00;;;;;;5076723;28;19938;-41
2022/03/09 11:42:20;;;;;;;12.52;8.10;;;11.40;65.40;;;;;;5080570;28;20111;-42
2022/03/09 11:44:53;;;;;;;17.60;8.70;;;11.80;66.90;;;;;;5080677;28;20479;-45
2022/03/09 11:47:19;;;;;;;12.82;8.48;;;11.90;60.50;;;;;;5077767;28;20467;-43
2022/03/09 11:49:52;;;;;;;11.73;7.97;;;12.10;63.90;;;;;;5077491;28;20052;-43
2022/03/09 11:52:18;;;;;;;12.82;7.95;;;12.20;59.60;;;;;;5080163;28;20081;-42
2022/03/09 11:55:01;;;;;;;14.50;8.90;;;12.30;61.40;;;;;;5078514;28;20032;-41
2022/03/09 11:58:00;;;;;;;16.98;8.30;;;12.40;59.00;;;;;;5078845;28;20040;-43
2022/03/09 12:00:26;;;;;;;16.40;8.90;;;12.60;61.30;;;;;;5075067;28;20488;-43
2022/03/09 12:02:56;;;;;;;14.30;8.85;;;12.80;57.70;;;;;;5077206;28;20032;-44
2022/03/09 12:05:28;;;;;;;15.20;8.65;;;12.70;57.00;;;;;;5079099;28;20070;-46
2022/03/09 12:08:14;;;;;;;14.80;8.98;;;12.70;57.90;;;;;;5078497;28;20117;-45
2022/03/09 12:10:47;;;;;;;12.77;8.13;;;13.00;59.70;;;;;;5079162;28;20047;-43
2022/03/09 12:13:33;;;;;;;13.60;8.65;;;13.10;56.50;;;;;;5078289;28;20092;-43
2022/03/09 12:16:14;;;;;;;15.63;9.13;;;13.40;56.70;;;;;;5079769;28;20040;-45
2022/03/09 12:18:58;;;;;;;13.85;8.75;;;13.40;55.60;;;;;;5077504;28;20039;-42
2022/03/09 12:21:27;;;;;;;13.77;8.50;;;13.50;54.20;;;;;;5079308;28;20036;-42
2022/03/09 12:24:04;;;;;;;14.82;8.70;;;13.40;52.90;;;;;;5078932;28;20029;-44
2022/03/09 12:26:43;;;;;;;13.77;8.82;;;13.50;52.00;;;;;;5080214;28;20032;-45
2022/03/09 12:29:20;;;;;;;14.30;8.48;;;13.60;51.80;;;;;;5077521;28;20071;-41
2022/03/09 12:31:47;;;;;;;15.85;9.07;;;13.70;50.20;;;;;;5080685;28;20063;-46
2022/03/09 12:34:24;;;;;;;14.68;9.27;;;13.80;51.90;;;;;;5079954;28;20028;-46
2022/03/09 12:36:50;;;;;;;18.30;9.55;;;14.00;50.80;;;;;;5078611;28;20056;-43
2022/03/09 12:39:16;;;;;;;13.20;8.60;;;14.10;50.10;;;;;;5079633;28;20036;-43
2022/03/09 12:41:42;;;;;;;13.43;8.60;;;14.40;53.30;;;;;;5081117;28;20102;-46
2022/03/09 12:44:10;;;;;;;15.63;8.55;;;14.40;51.70;;;;;;5075580;28;20036;-43
2022/03/09 12:46:39;;;;;;;13.05;8.25;;;14.50;50.00;;;;;;5078953;28;20068;-42